Time;durP1;ratioP1;P1;durP2;ratioP2;P2;SDS_P1;SDS_P2;PMS_P1;PMS_P2;Temp;Humidity;BMP_temperature;BMP_pressure;BME280_temperature;BME280_humidity;BME280_pressure;Samples;Min_cycle;Max_cycle;Signal;HPM_P1;HPM_P2
2024/01/24 00:00:31;;;;;;;14.73;3.05;;;10.80;99.90;;;;;;5034591;28;20536;-70
2024/01/24 00:02:57;;;;;;;18.75;4.40;;;10.80;99.90;;;;;;5032852;28;20053;-70
2024/01/24 00:05:23;;;;;;;15.55;4.15;;;10.80;99.90;;;;;;5033541;28;20115;-70
2024/01/24 00:07:49;;;;;;;19.67;4.28;;;10.90;99.90;;;;;;5033212;28;20073;-71
2024/01/24 00:10:15;;;;;;;19.88;3.97;;;10.90;99.90;;;;;;5037347;28;20038;-70
2024/01/24 00:12:41;;;;;;;13.80;3.40;;;10.90;99.90;;;;;;5032890;28;20049;-70
2024/01/24 00:15:07;;;;;;;24.08;4.53;;;10.90;99.90;;;;;;5032567;28;20056;-70
2024/01/24 00:17:33;;;;;;;19.98;4.45;;;10.80;99.90;;;;;;5033018;28;20446;-69
2024/01/24 00:19:58;;;;;;;17.13;4.40;;;10.90;99.90;;;;;;5032277;28;20056;-70
2024/01/24 00:22:24;;;;;;;12.43;3.20;;;10.90;99.90;;;;;;5032576;28;20037;-70
2024/01/24 00:24:50;;;;;;;16.48;3.97;;;10.80;99.90;;;;;;5033271;28;20130;-69
2024/01/24 00:27:16;;;;;;;20.98;4.82;;;10.90;99.90;;;;;;5033642;28;20045;-70
2024/01/24 00:29:42;;;;;;;18.45;4.20;;;10.80;99.90;;;;;;5033709;28;20076;-70
2024/01/24 00:32:08;;;;;;;16.95;3.70;;;10.80;99.90;;;;;;5031588;28;20177;-70
2024/01/24 00:34:34;;;;;;;19.02;4.45;;;10.80;99.90;;;;;;5034478;28;20038;-70
2024/01/24 00:36:59;;;;;;;18.55;3.80;;;10.80;99.90;;;;;;5033755;28;20509;-70
2024/01/24 00:39:25;;;;;;;16.02;3.35;;;10.80;99.90;;;;;;5020285;28;20470;-70
2024/01/24 00:41:52;;;;;;;15.82;4.18;;;10.80;99.90;;;;;;5032937;28;20083;-70
2024/01/24 00:44:17;;;;;;;15.23;3.97;;;10.80;99.90;;;;;;5030712;28;20237;-70
2024/01/24 00:46:43;;;;;;;16.52;4.15;;;10.80;99.90;;;;;;5035153;28;20474;-70
2024/01/24 00:49:10;;;;;;;18.10;3.92;;;10.80;99.90;;;;;;5031959;28;20041;-70
2024/01/24 00:51:36;;;;;;;17.50;4.38;;;10.80;99.90;;;;;;5033465;28;20042;-70
2024/01/24 00:54:02;;;;;;;15.40;3.50;;;10.80;99.90;;;;;;5064441;28;20398;-70
2024/01/24 00:56:28;;;;;;;14.43;3.47;;;10.80;99.90;;;;;;5033378;28;20049;-70
2024/01/24 00:58:54;;;;;;;21.88;4.45;;;10.90;99.90;;;;;;5034689;28;20044;-70
2024/01/24 01:01:20;;;;;;;19.05;3.88;;;10.90;99.90;;;;;;5032646;28;20115;-70
2024/01/24 01:03:46;;;;;;;18.20;4.35;;;10.80;99.90;;;;;;5032628;28;20099;-70
2024/01/24 01:06:11;;;;;;;24.23;5.45;;;10.90;99.90;;;;;;5031894;28;20049;-70
2024/01/24 01:08:37;;;;;;;25.13;5.40;;;10.80;99.90;;;;;;5032337;28;20041;-70
2024/01/24 01:11:05;;;;;;;21.08;4.60;;;10.90;99.90;;;;;;5032991;28;20038;-71
2024/01/24 01:13:33;;;;;;;20.60;4.30;;;10.80;99.90;;;;;;5057455;28;20387;-70
2024/01/24 01:15:58;;;;;;;18.10;4.05;;;10.90;99.90;;;;;;5033308;28;20053;-70
2024/01/24 01:18:24;;;;;;;14.10;3.47;;;11.00;99.90;;;;;;5031374;28;20767;-69
2024/01/24 01:20:50;;;;;;;9.80;3.20;;;10.90;99.90;;;;;;5033229;28;20037;-69
2024/01/24 01:23:16;;;;;;;12.45;2.90;;;10.90;99.90;;;;;;5031885;28;20446;-69
2024/01/24 01:25:41;;;;;;;17.20;2.75;;;10.80;99.90;;;;;;5032647;28;20045;-69
2024/01/24 01:28:07;;;;;;;15.43;3.28;;;10.80;99.90;;;;;;5030774;28;20090;-69
2024/01/24 01:30:33;;;;;;;17.73;3.80;;;10.80;99.90;;;;;;5032990;28;20459;-68
2024/01/24 01:32:58;;;;;;;14.57;3.08;;;10.90;99.90;;;;;;5032414;28;20042;-68
2024/01/24 01:35:24;;;;;;;24.15;4.50;;;10.90;99.90;;;;;;5030969;28;20041;-69
2024/01/24 01:37:50;;;;;;;14.50;3.00;;;10.90;99.90;;;;;;5032723;28;20037;-68
2024/01/24 01:40:15;;;;;;;14.65;3.95;;;11.00;99.90;;;;;;5064468;28;20114;-70
2024/01/24 01:42:45;;;;;;;19.38;3.92;;;11.00;99.90;;;;;;5032560;28;20041;-69
2024/01/24 01:45:11;;;;;;;16.40;3.88;;;11.10;99.90;;;;;;5031615;28;20041;-69
2024/01/24 01:47:38;;;;;;;15.65;3.70;;;11.00;99.90;;;;;;5032645;28;20124;-69
2024/01/24 01:50:09;;;;;;;18.77;3.72;;;11.10;99.90;;;;;;5032237;28;20048;-69
2024/01/24 01:52:35;;;;;;;10.93;2.50;;;11.20;99.90;;;;;;5032429;28;20048;-69
2024/01/24 01:55:01;;;;;;;15.10;2.97;;;11.20;99.90;;;;;;5030085;28;20045;-70
2024/01/24 01:57:26;;;;;;;11.77;2.88;;;11.20;99.90;;;;;;5061958;28;20049;-70
2024/01/24 01:59:53;;;;;;;14.65;2.95;;;11.20;99.90;;;;;;5031434;28;20034;-70
2024/01/24 02:02:19;;;;;;;13.70;3.03;;;11.20;99.90;;;;;;5033041;28;20123;-70
2024/01/24 02:04:45;;;;;;;16.17;3.97;;;11.30;99.90;;;;;;5033269;28;20505;-70
2024/01/24 02:07:10;;;;;;;10.85;3.05;;;11.30;99.90;;;;;;5014168;28;20041;-72
2024/01/24 02:09:36;;;;;;;9.55;2.30;;;11.40;99.90;;;;;;5032162;28;20037;-70
2024/01/24 02:12:02;;;;;;;12.57;2.80;;;11.30;99.90;;;;;;5031104;28;20044;-70
2024/01/24 02:14:28;;;;;;;11.95;3.03;;;11.40;99.90;;;;;;5031455;28;20041;-71
2024/01/24 02:16:54;;;;;;;12.80;3.17;;;11.50;99.90;;;;;;5032707;28;20358;-70
2024/01/24 02:19:21;;;;;;;10.80;3.25;;;11.50;99.90;;;;;;5031460;28;20033;-70
2024/01/24 02:21:46;;;;;;;12.85;2.63;;;11.60;99.90;;;;;;5032095;28;20056;-70
2024/01/24 02:24:12;;;;;;;15.57;2.53;;;11.60;99.90;;;;;;5032046;28;20475;-72
2024/01/24 02:26:39;;;;;;;9.88;3.42;;;11.60;99.90;;;;;;5030672;28;20053;-70
2024/01/24 02:29:05;;;;;;;12.07;2.50;;;11.60;99.90;;;;;;5035154;28;20037;-72
2024/01/24 02:31:36;;;;;;;11.27;2.67;;;11.70;99.90;;;;;;5032592;28;20059;-71
2024/01/24 02:34:02;;;;;;;13.55;3.63;;;11.70;99.90;;;;;;5032080;28;20042;-71
2024/01/24 02:36:28;;;;;;;15.13;3.05;;;11.70;99.90;;;;;;5063199;28;20536;-71
2024/01/24 02:38:54;;;;;;;15.43;2.75;;;11.70;99.90;;;;;;5030732;28;20049;-71
2024/01/24 02:41:20;;;;;;;13.00;3.30;;;11.70;99.90;;;;;;5041868;28;20073;-71
2024/01/24 02:43:46;;;;;;;14.77;3.05;;;11.70;99.90;;;;;;5030639;28;20076;-71
2024/01/24 02:46:12;;;;;;;11.55;2.78;;;11.70;99.90;;;;;;5030363;28;20084;-72
2024/01/24 02:48:37;;;;;;;10.43;2.88;;;11.70;99.90;;;;;;5030612;28;20509;-71
2024/01/24 02:51:03;;;;;;;13.75;2.95;;;11.70;99.90;;;;;;5031267;28;20084;-71
2024/01/24 02:53:29;;;;;;;12.25;3.05;;;11.70;99.90;;;;;;5020377;28;20170;-71
2024/01/24 02:55:54;;;;;;;10.13;3.03;;;11.70;99.90;;;;;;5022413;28;20045;-71
2024/01/24 02:58:20;;;;;;;12.45;2.67;;;11.70;99.90;;;;;;5029502;28;20045;-72
2024/01/24 03:00:46;;;;;;;13.60;3.60;;;11.60;99.90;;;;;;5031908;28;20045;-72
2024/01/24 03:03:12;;;;;;;16.00;3.17;;;11.60;99.90;;;;;;5030717;28;20041;-72
2024/01/24 03:05:37;;;;;;;16.13;3.40;;;11.60;99.90;;;;;;5034694;28;20104;-71
2024/01/24 03:08:03;;;;;;;16.42;3.78;;;11.60;99.90;;;;;;5037079;28;20044;-71
2024/01/24 03:10:29;;;;;;;18.25;3.70;;;11.60;99.90;;;;;;5033101;28;20048;-71
2024/01/24 03:12:55;;;;;;;16.77;3.38;;;11.50;99.90;;;;;;5030629;28;20509;-71
2024/01/24 03:15:21;;;;;;;19.77;3.55;;;11.50;99.90;;;;;;5031281;28;20092;-73
2024/01/24 03:17:47;;;;;;;19.13;4.55;;;11.50;99.90;;;;;;5032140;28;20498;-72
2024/01/24 03:20:13;;;;;;;16.73;3.60;;;11.40;99.90;;;;;;5030395;28;20045;-71
2024/01/24 03:22:43;;;;;;;21.02;4.10;;;11.30;99.90;;;;;;5030684;28;20409;-71
2024/01/24 03:25:09;;;;;;;16.92;4.05;;;11.30;99.90;;;;;;5031411;28;20072;-71
2024/01/24 03:27:34;;;;;;;16.55;3.53;;;11.20;99.90;;;;;;5029864;28;20429;-71
2024/01/24 03:30:00;;;;;;;18.83;4.13;;;11.20;99.90;;;;;;5030474;28;20049;-71
2024/01/24 03:32:26;;;;;;;21.23;4.85;;;11.10;99.90;;;;;;5013110;28;20053;-72
2024/01/24 03:34:53;;;;;;;12.60;2.88;;;11.10;99.90;;;;;;5030321;28;20088;-72
2024/01/24 03:37:19;;;;;;;26.60;5.80;;;11.10;99.90;;;;;;5063313;28;20084;-72
2024/01/24 03:39:45;;;;;;;15.32;3.70;;;11.00;99.90;;;;;;5029287;28;20041;-71
2024/01/24 03:42:10;;;;;;;21.95;4.72;;;11.00;99.90;;;;;;5033151;28;20077;-72
2024/01/24 03:44:36;;;;;;;22.02;4.82;;;11.00;99.90;;;;;;5033008;28;20045;-71
2024/01/24 03:47:02;;;;;;;23.73;4.65;;;11.00;99.90;;;;;;5046994;28;20045;-71
2024/01/24 03:49:27;;;;;;;22.00;6.07;;;11.00;99.90;;;;;;5030341;28;20560;-72
2024/01/24 03:51:53;;;;;;;21.98;4.30;;;11.00;99.90;;;;;;5031883;28;20064;-72
2024/01/24 03:54:19;;;;;;;18.40;4.13;;;11.00;99.90;;;;;;5032994;28;20071;-72
2024/01/24 03:56:45;;;;;;;22.55;4.32;;;11.00;99.90;;;;;;5033211;28;20207;-71
2024/01/24 03:59:11;;;;;;;18.13;4.88;;;11.00;99.90;;;;;;5034785;28;20103;-71
2024/01/24 04:01:36;;;;;;;22.05;4.57;;;11.10;99.90;;;;;;5032274;28;20099;-71
2024/01/24 04:04:02;;;;;;;20.92;4.30;;;11.00;99.90;;;;;;5033502;28;20056;-71
2024/01/24 04:06:28;;;;;;;25.13;4.82;;;11.10;99.90;;;;;;5034063;28;20390;-73
2024/01/24 04:08:53;;;;;;;20.80;4.70;;;11.10;99.90;;;;;;5042979;28;20069;-71
2024/01/24 04:11:19;;;;;;;18.88;4.43;;;11.10;99.90;;;;;;5038831;28;20045;-71
2024/01/24 04:13:50;;;;;;;21.95;5.57;;;11.00;99.90;;;;;;5033312;28;20037;-71
2024/01/24 04:16:15;;;;;;;28.48;5.65;;;11.10;99.90;;;;;;5027939;28;20099;-71
2024/01/24 04:18:41;;;;;;;20.63;3.88;;;11.10;99.90;;;;;;5033779;28;20128;-71
2024/01/24 04:21:07;;;;;;;20.00;4.18;;;11.10;99.90;;;;;;5038626;28;20041;-71
2024/01/24 04:23:33;;;;;;;24.38;5.93;;;10.70;99.90;;;;;;5032284;28;20043;-71
2024/01/24 04:25:58;;;;;;;30.90;5.85;;;11.00;99.90;;;;;;5033158;28;20041;-72
2024/01/24 04:28:24;;;;;;;18.10;5.40;;;10.90;99.90;;;;;;5034299;28;20041;-71
2024/01/24 04:30:49;;;;;;;23.48;5.55;;;10.90;99.90;;;;;;5033644;28;20041;-71
2024/01/24 04:33:15;;;;;;;25.90;4.88;;;10.90;99.90;;;;;;5041454;28;20072;-71
2024/01/24 04:35:41;;;;;;;21.95;4.90;;;10.90;99.90;;;;;;5032542;28;20041;-71
2024/01/24 04:38:06;;;;;;;23.55;5.05;;;10.90;99.90;;;;;;5034070;28;20091;-71
2024/01/24 04:40:33;;;;;;;27.60;4.95;;;10.90;99.90;;;;;;5033528;28;20044;-73
2024/01/24 04:42:59;;;;;;;23.50;4.80;;;10.80;99.90;;;;;;5032638;28;20077;-71
2024/01/24 04:45:24;;;;;;;30.85;5.60;;;10.80;99.90;;;;;;5039167;28;20068;-71
2024/01/24 04:47:50;;;;;;;28.17;5.05;;;10.70;99.90;;;;;;5032078;28;20037;-71
2024/01/24 04:50:16;;;;;;;23.30;4.63;;;10.70;99.90;;;;;;5032611;28;20040;-71
2024/01/24 04:52:41;;;;;;;25.80;5.05;;;10.70;99.90;;;;;;5031401;28;20095;-72
2024/01/24 04:55:13;;;;;;;28.48;6.13;;;10.70;99.90;;;;;;5033646;28;20127;-71
2024/01/24 04:57:39;;;;;;;29.00;7.50;;;10.70;99.90;;;;;;5033962;28;20133;-72
2024/01/24 05:00:09;;;;;;;20.10;4.38;;;10.70;99.90;;;;;;5026423;28;20129;-71
2024/01/24 05:02:36;;;;;;;25.27;5.13;;;10.70;99.90;;;;;;5032439;28;20051;-73
2024/01/24 05:05:03;;;;;;;28.95;6.25;;;10.70;99.90;;;;;;5032784;28;20049;-72
2024/01/24 05:07:28;;;;;;;29.30;6.22;;;10.60;99.90;;;;;;5033678;28;20060;-71
2024/01/24 05:09:54;;;;;;;27.45;6.13;;;10.60;99.90;;;;;;5032967;28;20084;-71
2024/01/24 05:12:20;;;;;;;28.60;6.18;;;10.60;99.90;;;;;;5045663;28;20045;-71
2024/01/24 05:14:45;;;;;;;31.38;7.43;;;10.70;99.90;;;;;;5031528;28;20041;-72
2024/01/24 05:17:11;;;;;;;30.85;5.65;;;10.60;99.90;;;;;;5032492;28;20049;-71
2024/01/24 05:19:37;;;;;;;37.00;7.82;;;10.60;99.90;;;;;;5033105;28;20050;-74
2024/01/24 05:22:02;;;;;;;27.75;5.38;;;10.60;99.90;;;;;;5031575;28;20041;-72
2024/01/24 05:24:28;;;;;;;37.95;6.25;;;10.60;99.90;;;;;;5033486;28;20049;-72
2024/01/24 05:26:54;;;;;;;29.65;6.30;;;10.60;99.90;;;;;;5031443;28;20068;-72
2024/01/24 05:29:19;;;;;;;31.05;5.95;;;10.60;99.90;;;;;;5031652;28;20041;-72
2024/01/24 05:31:45;;;;;;;31.88;6.22;;;10.60;99.90;;;;;;5032299;28;20048;-73
2024/01/24 05:34:12;;;;;;;32.95;6.63;;;10.60;99.90;;;;;;5032569;28;20041;-72
2024/01/24 05:36:39;;;;;;;35.08;7.75;;;10.60;99.90;;;;;;5032416;28;20041;-72
2024/01/24 05:39:06;;;;;;;29.83;5.90;;;10.50;99.90;;;;;;5032604;28;20064;-72
2024/01/24 05:41:33;;;;;;;36.25;7.28;;;10.50;99.90;;;;;;5065082;28;20057;-72
2024/01/24 05:43:59;;;;;;;36.80;7.00;;;10.50;99.90;;;;;;5064491;28;20541;-72
2024/01/24 05:46:25;;;;;;;37.90;7.63;;;10.50;99.90;;;;;;5031159;28;20414;-72
2024/01/24 05:48:51;;;;;;;38.88;6.97;;;10.40;99.90;;;;;;5036036;28;20113;-72
2024/01/24 05:51:16;;;;;;;34.67;6.10;;;10.40;99.90;;;;;;5019418;28;20096;-72
2024/01/24 05:53:42;;;;;;;43.72;8.25;;;10.40;99.90;;;;;;5029920;28;20115;-74
2024/01/24 05:56:08;;;;;;;36.55;7.30;;;10.40;99.90;;;;;;5029433;28;20111;-72
2024/01/24 05:58:36;;;;;;;35.80;7.53;;;10.30;99.90;;;;;;5061341;28;20045;-72
2024/01/24 06:01:02;;;;;;;39.13;7.68;;;10.40;99.90;;;;;;5033085;28;20042;-72
2024/01/24 06:03:28;;;;;;;36.15;8.15;;;10.30;99.90;;;;;;5019103;28;20125;-72
2024/01/24 06:05:54;;;;;;;39.70;8.07;;;10.40;99.90;;;;;;5030221;28;20037;-72
2024/01/24 06:08:19;;;;;;;36.78;7.65;;;10.30;99.90;;;;;;5032080;28;20202;-72
2024/01/24 06:10:45;;;;;;;30.98;7.57;;;10.30;99.90;;;;;;5030652;28;20042;-73
2024/01/24 06:13:11;;;;;;;35.08;7.93;;;10.30;99.90;;;;;;5033362;28;20033;-72
2024/01/24 06:15:37;;;;;;;39.47;7.30;;;10.40;99.90;;;;;;5029667;28;20116;-72
2024/01/24 06:18:03;;;;;;;30.75;7.30;;;10.30;99.90;;;;;;5030950;28;20077;-72
2024/01/24 06:20:28;;;;;;;35.72;7.10;;;10.30;99.90;;;;;;5031449;28;20419;-72
2024/01/24 06:22:54;;;;;;;28.02;6.60;;;10.30;99.90;;;;;;5031229;28;20038;-72
2024/01/24 06:25:20;;;;;;;33.22;7.15;;;10.30;99.90;;;;;;5026182;28;20386;-72
2024/01/24 06:27:46;;;;;;;30.17;6.97;;;10.30;99.90;;;;;;5033945;28;20051;-73
2024/01/24 06:30:12;;;;;;;38.53;7.95;;;10.30;99.90;;;;;;5028627;28;20037;-72
2024/01/24 06:32:38;;;;;;;46.15;8.55;;;10.30;99.90;;;;;;5023838;28;20069;-72
2024/01/24 06:35:04;;;;;;;40.00;7.80;;;10.30;99.90;;;;;;5029009;28;20076;-72
2024/01/24 06:37:29;;;;;;;41.50;8.00;;;10.30;99.90;;;;;;5057213;28;20049;-72
2024/01/24 06:39:55;;;;;;;38.00;7.03;;;10.20;99.90;;;;;;5024626;28;20112;-72
2024/01/24 06:42:21;;;;;;;33.88;8.05;;;10.20;99.90;;;;;;5026683;28;20041;-72
2024/01/24 06:44:46;;;;;;;36.28;7.03;;;10.20;99.90;;;;;;5024662;28;20136;-73
2024/01/24 06:47:12;;;;;;;36.58;8.55;;;10.10;99.90;;;;;;5025381;28;20113;-72
2024/01/24 06:49:38;;;;;;;38.58;8.05;;;10.10;99.90;;;;;;5031652;28;20098;-72
2024/01/24 06:52:04;;;;;;;39.05;8.40;;;10.10;99.90;;;;;;5030615;28;20487;-72
2024/01/24 06:54:29;;;;;;;42.05;8.55;;;10.00;99.90;;;;;;5030295;28;20064;-72
2024/01/24 06:56:55;;;;;;;33.33;7.05;;;10.00;99.90;;;;;;5013712;28;20064;-72
2024/01/24 06:59:20;;;;;;;30.90;6.70;;;10.00;99.90;;;;;;5031424;28;20049;-72
2024/01/24 07:01:47;;;;;;;36.42;8.90;;;9.90;99.90;;;;;;5022211;28;20041;-73
2024/01/24 07:04:12;;;;;;;32.28;7.28;;;9.90;99.90;;;;;;5029635;28;20112;-72
2024/01/24 07:06:38;;;;;;;32.83;7.22;;;9.90;99.90;;;;;;5029696;28;20080;-72
2024/01/24 07:09:03;;;;;;;40.47;8.63;;;9.90;99.90;;;;;;5029623;28;20044;-72
2024/01/24 07:11:29;;;;;;;39.92;8.30;;;9.90;99.90;;;;;;5030082;28;20048;-72
2024/01/24 07:13:55;;;;;;;32.65;6.80;;;9.90;99.90;;;;;;5029429;28;20071;-73
2024/01/24 07:16:20;;;;;;;31.65;7.30;;;9.90;99.90;;;;;;5030660;28;20124;-72
2024/01/24 07:18:46;;;;;;;35.60;6.75;;;9.90;99.90;;;;;;5020865;28;20041;-72
2024/01/24 07:21:14;;;;;;;32.88;7.13;;;10.00;99.90;;;;;;5012990;28;20510;-72
2024/01/24 07:23:39;;;;;;;43.53;9.00;;;9.90;99.90;;;;;;5018579;28;20401;-72
2024/01/24 07:26:05;;;;;;;43.20;9.10;;;9.90;99.90;;;;;;5014037;28;20121;-73
2024/01/24 07:28:32;;;;;;;31.10;8.65;;;9.90;99.90;;;;;;5029764;28;20044;-72
2024/01/24 07:30:57;;;;;;;42.63;8.38;;;9.90;99.90;;;;;;5025547;28;20042;-74
2024/01/24 07:33:23;;;;;;;37.78;7.05;;;9.80;99.90;;;;;;5025757;28;20052;-74
2024/01/24 07:35:49;;;;;;;31.02;7.47;;;9.90;99.90;;;;;;5030311;28;20475;-73
2024/01/24 07:38:14;;;;;;;46.45;9.20;;;9.80;99.90;;;;;;5020536;28;20045;-71
2024/01/24 07:40:40;;;;;;;31.58;6.88;;;9.80;99.90;;;;;;5026055;28;20041;-74
2024/01/24 07:43:06;;;;;;;42.80;7.88;;;9.80;99.90;;;;;;4999940;28;20121;-73
2024/01/24 07:45:32;;;;;;;38.72;7.63;;;9.80;99.90;;;;;;5031097;28;20121;-74
2024/01/24 07:47:57;;;;;;;37.17;8.48;;;9.80;99.90;;;;;;5038344;28;20112;-77
2024/01/24 07:50:23;;;;;;;37.70;8.43;;;9.70;99.90;;;;;;5021409;28;20092;-74
2024/01/24 07:52:49;;;;;;;41.83;8.13;;;9.90;99.90;;;;;;5032483;28;20073;-72
2024/01/24 07:55:15;;;;;;;32.30;7.70;;;9.80;99.90;;;;;;5032869;28;20084;-75
2024/01/24 07:57:41;;;;;;;39.47;8.43;;;9.80;99.90;;;;;;5033443;28;20132;-74
2024/01/24 08:00:07;;;;;;;39.13;7.93;;;9.80;99.90;;;;;;5041232;28;20120;-74
2024/01/24 08:02:33;;;;;;;33.83;6.78;;;9.80;99.90;;;;;;5034322;28;20048;-74
2024/01/24 08:05:00;;;;;;;34.95;7.68;;;9.80;99.90;;;;;;5048264;28;20386;-76
2024/01/24 08:07:26;;;;;;;33.22;8.07;;;9.80;99.90;;;;;;5019152;28;20103;-74
2024/01/24 08:09:52;;;;;;;34.03;8.32;;;9.80;99.90;;;;;;5034105;28;20122;-73
2024/01/24 08:12:18;;;;;;;34.40;7.57;;;9.80;99.90;;;;;;5032945;28;20049;-73
2024/01/24 08:14:44;;;;;;;39.42;8.15;;;9.80;99.90;;;;;;5034310;28;20436;-73
2024/01/24 08:17:14;;;;;;;42.13;8.25;;;9.80;99.90;;;;;;5032415;28;20124;-74
2024/01/24 08:19:39;;;;;;;32.47;7.40;;;9.90;99.90;;;;;;5065118;28;20050;-74
2024/01/24 08:22:05;;;;;;;43.65;9.13;;;9.90;99.90;;;;;;5066044;28;20115;-74
2024/01/24 08:24:32;;;;;;;31.05;6.82;;;9.90;99.90;;;;;;5066540;28;20041;-70
2024/01/24 08:26:58;;;;;;;32.35;7.88;;;9.90;99.90;;;;;;5064936;28;20049;-70
2024/01/24 08:29:27;;;;;;;35.83;8.00;;;10.00;99.90;;;;;;5015893;28;20045;-71
2024/01/24 08:31:52;;;;;;;38.30;7.13;;;9.90;99.90;;;;;;5022740;28;20050;-72
2024/01/24 08:34:18;;;;;;;33.30;7.32;;;9.90;99.90;;;;;;5030399;28;20049;-71
2024/01/24 08:36:44;;;;;;;32.92;7.03;;;9.90;99.90;;;;;;5033462;28;20050;-70
2024/01/24 08:39:10;;;;;;;33.08;6.63;;;9.90;99.90;;;;;;5045432;28;20037;-72
2024/01/24 08:41:36;;;;;;;34.28;7.75;;;9.90;99.90;;;;;;5034178;28;20072;-71
2024/01/24 08:44:02;;;;;;;43.35;9.55;;;9.90;99.90;;;;;;5032200;28;20037;-71
2024/01/24 08:46:28;;;;;;;36.08;7.85;;;9.80;99.90;;;;;;5032728;28;20069;-71
2024/01/24 08:48:54;;;;;;;28.80;6.65;;;9.90;99.90;;;;;;5041232;28;20049;-72
2024/01/24 08:51:21;;;;;;;35.97;7.57;;;9.90;99.90;;;;;;5033922;28;20038;-72
2024/01/24 08:53:46;;;;;;;41.67;8.77;;;9.90;99.90;;;;;;5033147;28;20529;-72
2024/01/24 08:56:13;;;;;;;29.63;5.82;;;9.90;99.90;;;;;;5025046;28;20049;-73
2024/01/24 08:58:39;;;;;;;32.22;7.47;;;9.90;99.90;;;;;;5023688;28;20079;-72
2024/01/24 09:01:05;;;;;;;35.72;7.75;;;9.90;99.90;;;;;;5027832;28;20045;-72
2024/01/24 09:03:31;;;;;;;32.50;7.28;;;9.90;99.90;;;;;;5023678;28;20061;-72
2024/01/24 09:05:57;;;;;;;35.97;7.88;;;10.00;99.90;;;;;;5032496;28;20071;-72
2024/01/24 09:08:23;;;;;;;43.85;8.80;;;10.00;99.90;;;;;;5037235;28;20085;-72
2024/01/24 09:10:48;;;;;;;35.47;7.60;;;10.00;99.90;;;;;;5024494;28;20443;-73
2024/01/24 09:13:19;;;;;;;31.45;6.93;;;10.00;99.90;;;;;;5014799;28;20141;-72
2024/01/24 09:15:45;;;;;;;38.28;6.97;;;10.00;99.90;;;;;;5020706;28;20115;-72
2024/01/24 09:18:10;;;;;;;33.58;8.15;;;10.10;99.90;;;;;;5031548;28;20072;-77
2024/01/24 09:20:36;;;;;;;37.33;8.70;;;10.10;99.90;;;;;;5026697;28;20362;-71
2024/01/24 09:23:02;;;;;;;31.90;6.90;;;10.00;99.90;;;;;;5026534;28;20048;-71
2024/01/24 09:25:27;;;;;;;37.70;7.82;;;10.10;99.90;;;;;;5030315;28;20045;-72
2024/01/24 09:27:53;;;;;;;45.88;9.02;;;10.10;99.90;;;;;;5017287;28;20037;-72
2024/01/24 09:30:20;;;;;;;34.67;8.23;;;10.10;99.90;;;;;;5029113;28;20140;-72
2024/01/24 09:32:46;;;;;;;32.80;7.85;;;10.10;99.90;;;;;;5024421;28;20045;-71
2024/01/24 09:35:11;;;;;;;36.88;6.90;;;10.10;99.90;;;;;;5030036;28;20102;-71
2024/01/24 09:37:37;;;;;;;32.20;7.45;;;10.20;99.90;;;;;;5057210;28;20589;-70
2024/01/24 09:40:04;;;;;;;34.55;8.00;;;10.20;99.90;;;;;;5022435;28;20064;-71
2024/01/24 09:42:36;;;;;;;34.92;7.93;;;10.20;99.90;;;;;;5024880;28;20052;-71
2024/01/24 09:45:05;;;;;;;32.15;8.40;;;10.30;99.90;;;;;;5020723;28;20502;-71
2024/01/24 09:47:31;;;;;;;38.55;7.10;;;10.30;99.90;;;;;;5021886;28;20053;-71
2024/01/24 09:49:59;;;;;;;29.25;6.90;;;10.30;99.90;;;;;;5021755;28;20049;-73
2024/01/24 09:52:26;;;;;;;33.85;7.40;;;10.30;99.90;;;;;;5022159;28;20053;-69
2024/01/24 09:54:57;;;;;;;28.48;7.07;;;10.40;99.90;;;;;;5022707;28;20056;-71
2024/01/24 09:57:24;;;;;;;30.92;6.78;;;10.40;99.90;;;;;;5019156;28;20046;-71
2024/01/24 09:59:51;;;;;;;36.67;7.70;;;10.40;99.90;;;;;;5026370;28;20370;-71
2024/01/24 10:02:17;;;;;;;36.83;7.75;;;10.40;99.90;;;;;;5024915;28;20387;-73
2024/01/24 10:04:46;;;;;;;30.90;6.72;;;10.40;99.90;;;;;;5027810;28;20042;-71
2024/01/24 10:07:13;;;;;;;38.10;7.05;;;10.40;99.90;;;;;;5031802;28;20056;-72
2024/01/24 10:09:39;;;;;;;29.95;7.43;;;10.40;99.90;;;;;;5062650;28;20103;-72
2024/01/24 10:12:05;;;;;;;29.52;6.40;;;10.40;99.90;;;;;;5027455;28;20049;-70
2024/01/24 10:14:32;;;;;;;36.67;6.60;;;10.40;99.90;;;;;;5027951;28;20055;-73
2024/01/24 10:16:58;;;;;;;35.80;7.70;;;10.50;99.90;;;;;;5025706;28;20317;-73
2024/01/24 10:19:24;;;;;;;29.85;6.45;;;10.50;99.90;;;;;;5007928;28;20045;-72
2024/01/24 10:21:53;;;;;;;29.35;7.50;;;10.50;99.90;;;;;;5023728;28;20053;-72
2024/01/24 10:24:21;;;;;;;33.97;7.13;;;10.50;99.90;;;;;;5021568;28;20033;-74
2024/01/24 10:26:47;;;;;;;32.70;7.28;;;10.50;99.90;;;;;;5056910;28;20041;-72
2024/01/24 10:29:13;;;;;;;35.45;7.93;;;10.50;99.90;;;;;;5019795;28;20041;-72
2024/01/24 10:31:39;;;;;;;26.77;6.20;;;10.60;99.90;;;;;;5016838;28;20318;-72
2024/01/24 10:34:06;;;;;;;29.02;5.88;;;10.60;99.90;;;;;;5025079;28;20060;-72
2024/01/24 10:36:38;;;;;;;37.50;7.00;;;10.60;99.90;;;;;;5016019;28;20442;-73
2024/01/24 10:39:06;;;;;;;38.38;7.30;;;10.60;99.90;;;;;;5017187;28;20120;-72
2024/01/24 10:41:38;;;;;;;32.42;7.75;;;10.60;99.90;;;;;;5029853;28;20562;-72
2024/01/24 10:44:09;;;;;;;36.53;7.80;;;10.60;99.90;;;;;;5063447;28;20055;-71
2024/01/24 10:46:39;;;;;;;33.25;6.07;;;10.60;99.90;;;;;;5014526;28;20081;-72
2024/01/24 10:49:05;;;;;;;28.10;5.90;;;10.60;99.90;;;;;;5060514;28;20096;-72
2024/01/24 10:51:32;;;;;;;32.92;8.13;;;10.50;99.90;;;;;;5026037;28;20060;-73
2024/01/24 10:53:59;;;;;;;27.05;6.10;;;10.50;99.90;;;;;;5030394;28;20833;-73
2024/01/24 10:56:27;;;;;;;35.58;7.55;;;10.50;99.90;;;;;;5023967;28;20057;-73
2024/01/24 10:58:55;;;;;;;25.88;5.90;;;10.50;99.90;;;;;;5029453;28;20045;-74
2024/01/24 11:01:20;;;;;;;29.70;6.43;;;10.50;99.90;;;;;;5029912;28;20383;-73
2024/01/24 11:03:49;;;;;;;29.08;6.45;;;10.50;99.90;;;;;;5033175;28;20053;-73
2024/01/24 11:06:17;;;;;;;40.35;7.68;;;10.50;99.90;;;;;;5032796;28;20455;-73
2024/01/24 11:08:48;;;;;;;28.25;6.30;;;10.50;99.90;;;;;;5031564;28;20045;-73
2024/01/24 11:11:18;;;;;;;32.28;6.57;;;10.50;99.90;;;;;;5036886;28;20382;-73
2024/01/24 11:13:45;;;;;;;28.83;6.78;;;10.60;99.90;;;;;;5020572;28;20064;-73
2024/01/24 11:16:45;;;;;;;31.10;6.80;;;10.60;99.90;;;;;;5028350;28;20045;-74
2024/01/24 11:19:22;;;;;;;35.28;6.32;;;10.70;99.90;;;;;;5002982;28;20107;-74
2024/01/24 11:21:48;;;;;;;30.17;6.10;;;10.70;99.90;;;;;;5029823;28;20049;-73
2024/01/24 11:24:40;;;;;;;30.95;6.78;;;10.70;99.90;;;;;;5029303;28;20045;-73
2024/01/24 11:27:25;;;;;;;28.85;6.55;;;10.70;99.90;;;;;;5025472;28;20421;-74
2024/01/24 11:29:51;;;;;;;34.92;6.45;;;10.60;99.90;;;;;;5024620;28;20038;-78
2024/01/24 11:32:47;;;;;;;30.15;6.93;;;10.60;99.90;;;;;;5025842;28;20042;-82
2024/01/24 11:35:32;;;;;;;32.88;5.80;;;10.70;99.90;;;;;;5024297;28;20434;-79
2024/01/24 11:38:01;;;;;;;33.22;6.07;;;10.60;99.90;;;;;;5050816;28;20053;-79
2024/01/24 11:40:27;;;;;;;32.63;7.00;;;10.60;99.90;;;;;;5027892;28;20077;-77
2024/01/24 11:42:56;;;;;;;34.25;7.30;;;10.60;99.90;;;;;;5023914;28;20111;-78
2024/01/24 11:45:24;;;;;;;25.33;5.90;;;10.60;99.90;;;;;;5023725;28;20386;-80
2024/01/24 11:47:54;;;;;;;27.23;6.90;;;10.50;99.90;;;;;;5021322;28;20056;-79
2024/01/24 11:50:20;;;;;;;33.15;6.57;;;10.50;99.90;;;;;;5018490;28;20083;-77
2024/01/24 11:52:46;;;;;;;31.27;7.50;;;10.50;99.90;;;;;;5031480;28;20045;-78
2024/01/24 11:55:12;;;;;;;33.45;6.68;;;10.50;99.90;;;;;;5038509;28;20049;-78
2024/01/24 11:57:38;;;;;;;29.35;6.65;;;10.50;99.90;;;;;;5033406;28;20173;-83
2024/01/24 12:00:06;;;;;;;33.78;7.50;;;10.50;99.90;;;;;;5020630;28;20045;-82
2024/01/24 12:02:33;;;;;;;35.85;6.97;;;10.50;99.90;;;;;;5032259;28;20474;-80
2024/01/24 12:05:00;;;;;;;28.13;5.95;;;10.50;99.90;;;;;;5034514;28;20084;-79
2024/01/24 12:07:26;;;;;;;34.38;7.28;;;10.50;99.90;;;;;;4986862;28;20041;-79
2024/01/24 12:09:53;;;;;;;28.67;6.53;;;10.50;99.90;;;;;;5013836;28;20045;-78
2024/01/24 12:12:19;;;;;;;35.40;6.32;;;10.60;99.90;;;;;;5004406;28;20049;-80
2024/01/24 12:14:45;;;;;;;29.52;5.82;;;10.60;99.90;;;;;;5028388;28;20440;-78
2024/01/24 12:17:11;;;;;;;30.15;6.65;;;10.60;99.90;;;;;;5032000;28;20041;-78
2024/01/24 12:19:41;;;;;;;24.48;5.25;;;10.60;99.90;;;;;;5018580;28;20059;-79
2024/01/24 12:22:09;;;;;;;30.98;7.07;;;10.60;99.90;;;;;;5031551;28;20128;-79
2024/01/24 12:24:40;;;;;;;32.55;6.32;;;10.60;99.90;;;;;;5030308;28;20046;-77
2024/01/24 12:27:07;;;;;;;31.40;6.85;;;10.70;99.90;;;;;;5032681;28;20069;-80
2024/01/24 12:29:33;;;;;;;30.63;6.25;;;10.70;99.90;;;;;;5058848;28;20108;-80
2024/01/24 12:32:03;;;;;;;30.80;6.88;;;10.60;99.90;;;;;;5032315;28;20476;-80
2024/01/24 12:34:30;;;;;;;30.90;6.50;;;10.60;99.90;;;;;;5028171;28;20533;-80